Waterflow, New Mexico
Current Conditions -  °F | °C
As of 8:53 PM on Tuesday 25 Nov 2014 (Local Time) from KFMN Reporting Station
Clear Clear  
Wind Chill: 27°   Ceiling: Unl
Heat Index: 32°   Visibility: 10mi
Dew Point:   Wind: 5mph
Humidity: 31%   Direction: 260°W
Pressure: 30.31"   Gusts: NA
Location:  36.75°N, 108.45°W
Report Text: KFMN 260353Z 26004KT 10SM CLR 00/M16 A3031 RMK AO2 SLP291 T00001156
Loading
Personal Weather Stations






























Interactive Weather Map New forecast layout! Learn more

10-Day Weather Forecast

Advertisements
Track Severe Weather on mobile